sensor_id;sensor_type;location;lat;lon;timestamp;P1;durP1;ratioP1;P2;durP2;ratioP2
57635;SDS011;43465;50.728;4.160;2023-05-10T00:00:33;14.40;;;9.10;;
57635;SDS011;43465;50.728;4.160;2023-05-10T00:02:59;20.48;;;9.68;;
57635;SDS011;43465;50.728;4.160;2023-05-10T00:05:24;18.13;;;9.73;;
57635;SDS011;43465;50.728;4.160;2023-05-10T00:07:50;16.33;;;9.98;;
57635;SDS011;43465;50.728;4.160;2023-05-10T00:10:16;18.65;;;10.77;;
57635;SDS011;43465;50.728;4.160;2023-05-10T00:12:41;17.50;;;10.43;;
57635;SDS011;43465;50.728;4.160;2023-05-10T00:15:07;19.92;;;11.07;;
57635;SDS011;43465;50.728;4.160;2023-05-10T00:17:33;17.42;;;10.85;;
57635;SDS011;43465;50.728;4.160;2023-05-10T00:19:59;19.00;;;11.05;;
57635;SDS011;43465;50.728;4.160;2023-05-10T00:22:25;18.10;;;10.63;;
57635;SDS011;43465;50.728;4.160;2023-05-10T00:24:51;22.92;;;11.25;;
57635;SDS011;43465;50.728;4.160;2023-05-10T00:27:16;24.50;;;11.05;;
57635;SDS011;43465;50.728;4.160;2023-05-10T00:29:42;17.75;;;10.65;;
57635;SDS011;43465;50.728;4.160;2023-05-10T00:32:08;22.05;;;11.88;;
57635;SDS011;43465;50.728;4.160;2023-05-10T00:34:33;22.05;;;12.07;;
57635;SDS011;43465;50.728;4.160;2023-05-10T00:36:59;18.05;;;11.38;;
57635;SDS011;43465;50.728;4.160;2023-05-10T00:39:25;21.90;;;11.77;;
57635;SDS011;43465;50.728;4.160;2023-05-10T00:41:51;19.00;;;11.63;;
57635;SDS011;43465;50.728;4.160;2023-05-10T00:44:17;23.98;;;12.57;;
57635;SDS011;43465;50.728;4.160;2023-05-10T00:46:43;18.55;;;11.65;;
57635;SDS011;43465;50.728;4.160;2023-05-10T00:49:09;22.02;;;12.45;;
57635;SDS011;43465;50.728;4.160;2023-05-10T00:51:36;24.67;;;13.55;;
57635;SDS011;43465;50.728;4.160;2023-05-10T00:54:02;28.55;;;13.32;;
57635;SDS011;43465;50.728;4.160;2023-05-10T00:56:28;22.23;;;13.73;;
57635;SDS011;43465;50.728;4.160;2023-05-10T00:58:54;23.27;;;13.35;;
57635;SDS011;43465;50.728;4.160;2023-05-10T01:01:20;21.05;;;13.02;;
57635;SDS011;43465;50.728;4.160;2023-05-10T01:03:46;29.48;;;14.43;;
57635;SDS011;43465;50.728;4.160;2023-05-10T01:06:12;24.55;;;14.75;;
57635;SDS011;43465;50.728;4.160;2023-05-10T01:08:38;27.65;;;13.85;;
57635;SDS011;43465;50.728;4.160;2023-05-10T01:11:04;24.15;;;14.88;;
57635;SDS011;43465;50.728;4.160;2023-05-10T01:15:58;21.10;;;13.95;;
57635;SDS011;43465;50.728;4.160;2023-05-10T01:18:27;25.77;;;15.35;;
57635;SDS011;43465;50.728;4.160;2023-05-10T01:20:59;29.00;;;15.35;;
57635;SDS011;43465;50.728;4.160;2023-05-10T01:34:39;24.85;;;14.85;;
57635;SDS011;43465;50.728;4.160;2023-05-10T01:37:20;24.75;;;13.63;;
57635;SDS011;43465;50.728;4.160;2023-05-10T01:40:14;24.08;;;13.95;;
57635;SDS011;43465;50.728;4.160;2023-05-10T01:42:47;21.17;;;12.95;;
57635;SDS011;43465;50.728;4.160;2023-05-10T01:45:20;23.77;;;13.25;;
57635;SDS011;43465;50.728;4.160;2023-05-10T01:48:02;22.35;;;12.38;;
57635;SDS011;43465;50.728;4.160;2023-05-10T01:50:31;22.17;;;12.93;;
57635;SDS011;43465;50.728;4.160;2023-05-10T01:52:59;20.48;;;12.63;;
57635;SDS011;43465;50.728;4.160;2023-05-10T01:55:28;25.42;;;13.20;;
57635;SDS011;43465;50.728;4.160;2023-05-10T01:58:03;26.00;;;12.38;;
57635;SDS011;43465;50.728;4.160;2023-05-10T02:00:33;24.95;;;13.85;;
57635;SDS011;43465;50.728;4.160;2023-05-10T02:03:00;23.15;;;13.00;;
57635;SDS011;43465;50.728;4.160;2023-05-10T02:05:30;21.25;;;13.13;;
57635;SDS011;43465;50.728;4.160;2023-05-10T02:07:58;24.15;;;14.18;;
57635;SDS011;43465;50.728;4.160;2023-05-10T02:10:27;24.95;;;13.52;;
57635;SDS011;43465;50.728;4.160;2023-05-10T02:12:54;25.17;;;13.73;;
57635;SDS011;43465;50.728;4.160;2023-05-10T02:15:23;26.35;;;14.13;;
57635;SDS011;43465;50.728;4.160;2023-05-10T02:17:50;25.20;;;13.13;;
57635;SDS011;43465;50.728;4.160;2023-05-10T02:20:19;28.70;;;14.65;;
57635;SDS011;43465;50.728;4.160;2023-05-10T02:22:47;23.67;;;13.93;;
57635;SDS011;43465;50.728;4.160;2023-05-10T02:25:15;23.33;;;13.88;;
57635;SDS011;43465;50.728;4.160;2023-05-10T02:27:44;27.52;;;14.88;;
57635;SDS011;43465;50.728;4.160;2023-05-10T02:30:11;29.08;;;15.07;;
57635;SDS011;43465;50.728;4.160;2023-05-10T02:32:38;28.02;;;15.85;;
57635;SDS011;43465;50.728;4.160;2023-05-10T02:35:04;33.10;;;17.70;;
57635;SDS011;43465;50.728;4.160;2023-05-10T02:37:31;34.53;;;18.08;;
57635;SDS011;43465;50.728;4.160;2023-05-10T02:39:58;32.67;;;18.10;;
57635;SDS011;43465;50.728;4.160;2023-05-10T02:42:25;30.85;;;17.95;;
57635;SDS011;43465;50.728;4.160;2023-05-10T02:44:53;29.80;;;16.90;;
57635;SDS011;43465;50.728;4.160;2023-05-10T02:47:25;30.88;;;17.63;;
57635;SDS011;43465;50.728;4.160;2023-05-10T02:49:51;28.70;;;16.85;;
57635;SDS011;43465;50.728;4.160;2023-05-10T02:52:19;29.80;;;18.25;;
57635;SDS011;43465;50.728;4.160;2023-05-10T02:54:49;31.38;;;18.20;;
57635;SDS011;43465;50.728;4.160;2023-05-10T02:57:17;30.35;;;19.35;;
57635;SDS011;43465;50.728;4.160;2023-05-10T02:59:53;33.20;;;19.73;;
57635;SDS011;43465;50.728;4.160;2023-05-10T03:02:20;32.80;;;19.38;;
57635;SDS011;43465;50.728;4.160;2023-05-10T03:04:46;34.42;;;20.75;;
57635;SDS011;43465;50.728;4.160;2023-05-10T03:07:12;35.13;;;20.63;;
57635;SDS011;43465;50.728;4.160;2023-05-10T03:09:38;32.67;;;20.77;;
57635;SDS011;43465;50.728;4.160;2023-05-10T03:12:27;31.42;;;19.10;;
57635;SDS011;43465;50.728;4.160;2023-05-10T03:20:22;34.72;;;19.33;;
57635;SDS011;43465;50.728;4.160;2023-05-10T03:22:55;30.02;;;19.58;;
57635;SDS011;43465;50.728;4.160;2023-05-10T03:25:34;35.83;;;20.88;;
57635;SDS011;43465;50.728;4.160;2023-05-10T03:28:01;37.80;;;20.77;;
57635;SDS011;43465;50.728;4.160;2023-05-10T03:30:28;36.15;;;20.38;;
57635;SDS011;43465;50.728;4.160;2023-05-10T03:32:54;32.40;;;20.48;;
57635;SDS011;43465;50.728;4.160;2023-05-10T03:35:21;34.78;;;20.23;;
57635;SDS011;43465;50.728;4.160;2023-05-10T03:37:48;34.13;;;20.35;;
57635;SDS011;43465;50.728;4.160;2023-05-10T03:40:14;33.47;;;19.33;;
57635;SDS011;43465;50.728;4.160;2023-05-10T03:42:40;33.40;;;19.73;;
57635;SDS011;43465;50.728;4.160;2023-05-10T03:45:06;29.88;;;18.20;;
57635;SDS011;43465;50.728;4.160;2023-05-10T03:47:32;36.85;;;18.77;;
57635;SDS011;43465;50.728;4.160;2023-05-10T03:49:58;29.40;;;17.08;;
57635;SDS011;43465;50.728;4.160;2023-05-10T03:52:23;31.90;;;16.80;;
57635;SDS011;43465;50.728;4.160;2023-05-10T03:54:49;33.33;;;16.55;;
57635;SDS011;43465;50.728;4.160;2023-05-10T03:57:15;31.90;;;15.25;;
57635;SDS011;43465;50.728;4.160;2023-05-10T03:59:40;30.67;;;13.65;;
57635;SDS011;43465;50.728;4.160;2023-05-10T04:02:06;25.80;;;13.18;;
57635;SDS011;43465;50.728;4.160;2023-05-10T04:04:31;26.08;;;12.52;;
57635;SDS011;43465;50.728;4.160;2023-05-10T04:06:57;25.90;;;12.82;;
57635;SDS011;43465;50.728;4.160;2023-05-10T04:09:23;23.45;;;11.55;;
57635;SDS011;43465;50.728;4.160;2023-05-10T04:11:48;29.02;;;12.75;;
57635;SDS011;43465;50.728;4.160;2023-05-10T04:14:14;25.63;;;11.73;;
57635;SDS011;43465;50.728;4.160;2023-05-10T04:16:40;25.48;;;11.68;;
57635;SDS011;43465;50.728;4.160;2023-05-10T04:19:05;23.02;;;11.23;;
57635;SDS011;43465;50.728;4.160;2023-05-10T04:21:31;27.63;;;11.77;;
57635;SDS011;43465;50.728;4.160;2023-05-10T04:23:57;27.65;;;11.70;;
57635;SDS011;43465;50.728;4.160;2023-05-10T04:26:23;26.65;;;11.38;;
57635;SDS011;43465;50.728;4.160;2023-05-10T04:28:50;24.85;;;11.35;;
57635;SDS011;43465;50.728;4.160;2023-05-10T04:31:16;22.05;;;10.40;;
57635;SDS011;43465;50.728;4.160;2023-05-10T04:33:42;21.10;;;10.68;;
57635;SDS011;43465;50.728;4.160;2023-05-10T04:36:07;31.15;;;11.18;;
57635;SDS011;43465;50.728;4.160;2023-05-10T04:38:33;28.27;;;10.77;;
57635;SDS011;43465;50.728;4.160;2023-05-10T04:41:06;23.23;;;11.25;;
57635;SDS011;43465;50.728;4.160;2023-05-10T04:43:32;26.10;;;11.82;;
57635;SDS011;43465;50.728;4.160;2023-05-10T04:45:58;29.30;;;12.45;;
57635;SDS011;43465;50.728;4.160;2023-05-10T04:48:23;28.35;;;11.02;;
57635;SDS011;43465;50.728;4.160;2023-05-10T04:50:49;30.77;;;12.13;;
57635;SDS011;43465;50.728;4.160;2023-05-10T04:53:15;26.15;;;11.50;;
57635;SDS011;43465;50.728;4.160;2023-05-10T04:55:41;28.38;;;11.55;;
57635;SDS011;43465;50.728;4.160;2023-05-10T04:58:07;29.15;;;11.32;;
57635;SDS011;43465;50.728;4.160;2023-05-10T05:00:35;32.50;;;10.35;;
57635;SDS011;43465;50.728;4.160;2023-05-10T05:03:01;23.20;;;9.07;;
57635;SDS011;43465;50.728;4.160;2023-05-10T05:05:26;19.85;;;9.18;;
57635;SDS011;43465;50.728;4.160;2023-05-10T05:07:52;21.02;;;8.43;;
57635;SDS011;43465;50.728;4.160;2023-05-10T05:10:17;19.10;;;7.97;;
57635;SDS011;43465;50.728;4.160;2023-05-10T05:12:43;19.55;;;8.40;;
57635;SDS011;43465;50.728;4.160;2023-05-10T05:15:09;15.25;;;8.07;;
57635;SDS011;43465;50.728;4.160;2023-05-10T05:17:35;19.88;;;8.43;;
57635;SDS011;43465;50.728;4.160;2023-05-10T05:20:01;16.60;;;8.70;;
57635;SDS011;43465;50.728;4.160;2023-05-10T05:22:28;17.80;;;8.05;;
57635;SDS011;43465;50.728;4.160;2023-05-10T05:24:54;17.98;;;8.45;;
57635;SDS011;43465;50.728;4.160;2023-05-10T05:27:20;22.15;;;9.07;;
57635;SDS011;43465;50.728;4.160;2023-05-10T05:29:49;19.35;;;8.90;;
57635;SDS011;43465;50.728;4.160;2023-05-10T05:32:21;16.35;;;8.65;;
57635;SDS011;43465;50.728;4.160;2023-05-10T05:34:47;20.00;;;9.95;;
57635;SDS011;43465;50.728;4.160;2023-05-10T05:37:16;21.65;;;11.68;;
57635;SDS011;43465;50.728;4.160;2023-05-10T05:39:43;17.38;;;11.25;;
57635;SDS011;43465;50.728;4.160;2023-05-10T05:42:10;16.52;;;10.43;;
57635;SDS011;43465;50.728;4.160;2023-05-10T05:44:37;16.95;;;10.80;;
57635;SDS011;43465;50.728;4.160;2023-05-10T05:47:03;18.02;;;10.55;;
57635;SDS011;43465;50.728;4.160;2023-05-10T05:49:29;19.10;;;11.15;;
57635;SDS011;43465;50.728;4.160;2023-05-10T05:51:58;14.30;;;10.18;;
57635;SDS011;43465;50.728;4.160;2023-05-10T05:54:27;18.90;;;10.52;;
57635;SDS011;43465;50.728;4.160;2023-05-10T05:56:57;11.80;;;7.97;;
57635;SDS011;43465;50.728;4.160;2023-05-10T05:59:23;10.85;;;8.18;;
57635;SDS011;43465;50.728;4.160;2023-05-10T06:01:49;10.15;;;7.25;;
57635;SDS011;43465;50.728;4.160;2023-05-10T06:04:15;9.10;;;7.00;;
57635;SDS011;43465;50.728;4.160;2023-05-10T06:06:41;10.18;;;7.55;;
57635;SDS011;43465;50.728;4.160;2023-05-10T06:09:07;12.85;;;7.38;;
57635;SDS011;43465;50.728;4.160;2023-05-10T06:11:33;11.82;;;7.88;;
57635;SDS011;43465;50.728;4.160;2023-05-10T06:13:59;13.15;;;8.02;;
57635;SDS011;43465;50.728;4.160;2023-05-10T06:16:25;14.15;;;8.35;;
57635;SDS011;43465;50.728;4.160;2023-05-10T06:18:51;13.50;;;7.95;;
57635;SDS011;43465;50.728;4.160;2023-05-10T06:21:17;13.27;;;7.70;;
57635;SDS011;43465;50.728;4.160;2023-05-10T06:23:42;13.98;;;8.63;;
57635;SDS011;43465;50.728;4.160;2023-05-10T06:26:09;14.70;;;7.15;;
57635;SDS011;43465;50.728;4.160;2023-05-10T06:28:34;12.32;;;6.90;;
57635;SDS011;43465;50.728;4.160;2023-05-10T06:31:03;14.18;;;7.13;;
57635;SDS011;43465;50.728;4.160;2023-05-10T06:33:29;9.27;;;6.65;;
57635;SDS011;43465;50.728;4.160;2023-05-10T06:35:55;9.90;;;6.53;;
57635;SDS011;43465;50.728;4.160;2023-05-10T06:38:20;15.00;;;7.18;;
57635;SDS011;43465;50.728;4.160;2023-05-10T06:40:46;9.88;;;6.63;;
57635;SDS011;43465;50.728;4.160;2023-05-10T06:43:12;12.05;;;7.13;;
57635;SDS011;43465;50.728;4.160;2023-05-10T06:45:38;11.90;;;7.00;;
57635;SDS011;43465;50.728;4.160;2023-05-10T06:48:03;12.75;;;6.50;;
57635;SDS011;43465;50.728;4.160;2023-05-10T06:50:29;7.90;;;6.22;;
57635;SDS011;43465;50.728;4.160;2023-05-10T06:52:55;12.82;;;6.07;;
57635;SDS011;43465;50.728;4.160;2023-05-10T06:55:21;8.20;;;5.97;;
57635;SDS011;43465;50.728;4.160;2023-05-10T06:57:46;8.95;;;5.70;;
57635;SDS011;43465;50.728;4.160;2023-05-10T07:00:13;7.28;;;5.30;;
57635;SDS011;43465;50.728;4.160;2023-05-10T07:02:39;6.13;;;4.80;;
57635;SDS011;43465;50.728;4.160;2023-05-10T07:05:05;6.38;;;4.90;;
57635;SDS011;43465;50.728;4.160;2023-05-10T07:07:31;7.72;;;4.97;;
57635;SDS011;43465;50.728;4.160;2023-05-10T07:09:57;6.32;;;4.70;;
57635;SDS011;43465;50.728;4.160;2023-05-10T07:12:23;6.65;;;5.05;;
57635;SDS011;43465;50.728;4.160;2023-05-10T07:14:49;4.95;;;4.28;;
57635;SDS011;43465;50.728;4.160;2023-05-10T07:17:15;7.18;;;4.55;;
57635;SDS011;43465;50.728;4.160;2023-05-10T07:19:40;6.75;;;4.30;;
57635;SDS011;43465;50.728;4.160;2023-05-10T07:22:06;5.68;;;4.47;;
57635;SDS011;43465;50.728;4.160;2023-05-10T07:24:32;4.57;;;4.13;;
57635;SDS011;43465;50.728;4.160;2023-05-10T07:26:58;5.07;;;3.35;;
57635;SDS011;43465;50.728;4.160;2023-05-10T07:29:24;3.20;;;2.92;;
57635;SDS011;43465;50.728;4.160;2023-05-10T07:31:50;4.18;;;2.90;;
57635;SDS011;43465;50.728;4.160;2023-05-10T07:34:15;3.13;;;2.83;;
57635;SDS011;43465;50.728;4.160;2023-05-10T07:36:41;2.80;;;2.47;;
57635;SDS011;43465;50.728;4.160;2023-05-10T07:39:06;2.85;;;2.65;;
57635;SDS011;43465;50.728;4.160;2023-05-10T07:41:32;2.60;;;2.40;;
57635;SDS011;43465;50.728;4.160;2023-05-10T07:43:58;3.75;;;2.35;;
57635;SDS011;43465;50.728;4.160;2023-05-10T07:46:24;3.13;;;2.30;;
57635;SDS011;43465;50.728;4.160;2023-05-10T07:48:49;9.32;;;2.05;;
57635;SDS011;43465;50.728;4.160;2023-05-10T07:51:15;2.47;;;2.28;;
57635;SDS011;43465;50.728;4.160;2023-05-10T07:53:41;4.28;;;2.20;;
57635;SDS011;43465;50.728;4.160;2023-05-10T07:56:26;3.40;;;2.00;;
57635;SDS011;43465;50.728;4.160;2023-05-10T07:58:54;2.38;;;1.90;;
57635;SDS011;43465;50.728;4.160;2023-05-10T08:01:21;2.22;;;2.10;;
57635;SDS011;43465;50.728;4.160;2023-05-10T08:03:47;2.10;;;2.00;;
57635;SDS011;43465;50.728;4.160;2023-05-10T08:06:14;2.58;;;2.38;;
57635;SDS011;43465;50.728;4.160;2023-05-10T08:08:40;2.35;;;2.03;;
57635;SDS011;43465;50.728;4.160;2023-05-10T08:11:06;3.72;;;2.28;;
57635;SDS011;43465;50.728;4.160;2023-05-10T08:13:32;2.85;;;2.25;;
57635;SDS011;43465;50.728;4.160;2023-05-10T08:15:58;2.45;;;2.25;;
57635;SDS011;43465;50.728;4.160;2023-05-10T08:18:23;2.67;;;2.58;;
57635;SDS011;43465;50.728;4.160;2023-05-10T08:20:49;3.33;;;2.60;;
57635;SDS011;43465;50.728;4.160;2023-05-10T08:23:15;2.80;;;2.60;;
57635;SDS011;43465;50.728;4.160;2023-05-10T08:25:40;3.50;;;3.20;;
57635;SDS011;43465;50.728;4.160;2023-05-10T08:28:06;5.35;;;3.40;;
57635;SDS011;43465;50.728;4.160;2023-05-10T08:30:32;3.33;;;3.03;;
57635;SDS011;43465;50.728;4.160;2023-05-10T08:32:57;3.92;;;3.63;;
57635;SDS011;43465;50.728;4.160;2023-05-10T08:35:23;4.10;;;3.80;;
57635;SDS011;43465;50.728;4.160;2023-05-10T08:37:50;4.15;;;3.83;;
57635;SDS011;43465;50.728;4.160;2023-05-10T08:40:16;5.57;;;4.50;;
57635;SDS011;43465;50.728;4.160;2023-05-10T08:42:47;4.70;;;4.30;;
57635;SDS011;43465;50.728;4.160;2023-05-10T08:45:19;5.07;;;4.30;;
57635;SDS011;43465;50.728;4.160;2023-05-10T08:47:49;4.85;;;4.38;;
57635;SDS011;43465;50.728;4.160;2023-05-10T08:50:17;5.18;;;4.65;;
57635;SDS011;43465;50.728;4.160;2023-05-10T08:52:45;5.22;;;4.82;;
57635;SDS011;43465;50.728;4.160;2023-05-10T08:55:15;7.47;;;5.68;;
57635;SDS011;43465;50.728;4.160;2023-05-10T08:57:41;6.47;;;5.88;;
57635;SDS011;43465;50.728;4.160;2023-05-10T09:00:07;7.25;;;6.18;;
57635;SDS011;43465;50.728;4.160;2023-05-10T09:02:34;6.57;;;5.97;;
57635;SDS011;43465;50.728;4.160;2023-05-10T09:05:02;7.57;;;6.28;;
57635;SDS011;43465;50.728;4.160;2023-05-10T09:07:29;6.78;;;6.05;;
57635;SDS011;43465;50.728;4.160;2023-05-10T09:09:55;8.57;;;6.35;;
57635;SDS011;43465;50.728;4.160;2023-05-10T09:12:22;6.97;;;5.95;;
57635;SDS011;43465;50.728;4.160;2023-05-10T09:14:48;6.80;;;5.63;;
57635;SDS011;43465;50.728;4.160;2023-05-10T09:17:15;6.57;;;5.90;;
57635;SDS011;43465;50.728;4.160;2023-05-10T09:19:41;6.88;;;6.18;;
57635;SDS011;43465;50.728;4.160;2023-05-10T09:22:07;6.97;;;5.90;;
57635;SDS011;43465;50.728;4.160;2023-05-10T09:24:33;5.93;;;5.40;;
57635;SDS011;43465;50.728;4.160;2023-05-10T09:26:58;5.72;;;5.22;;
57635;SDS011;43465;50.728;4.160;2023-05-10T09:29:24;6.28;;;5.30;;
57635;SDS011;43465;50.728;4.160;2023-05-10T09:31:50;4.88;;;4.40;;
57635;SDS011;43465;50.728;4.160;2023-05-10T09:34:20;5.10;;;4.60;;
57635;SDS011;43465;50.728;4.160;2023-05-10T09:36:55;6.15;;;4.80;;
57635;SDS011;43465;50.728;4.160;2023-05-10T09:39:32;5.07;;;4.63;;
57635;SDS011;43465;50.728;4.160;2023-05-10T09:42:00;4.60;;;4.20;;
57635;SDS011;43465;50.728;4.160;2023-05-10T09:44:28;4.97;;;4.50;;
57635;SDS011;43465;50.728;4.160;2023-05-10T09:46:55;5.28;;;4.60;;
57635;SDS011;43465;50.728;4.160;2023-05-10T09:49:21;3.92;;;3.63;;
57635;SDS011;43465;50.728;4.160;2023-05-10T09:51:47;4.10;;;3.67;;
57635;SDS011;43465;50.728;4.160;2023-05-10T09:54:22;4.25;;;3.85;;
57635;SDS011;43465;50.728;4.160;2023-05-10T09:56:48;4.07;;;3.67;;
57635;SDS011;43465;50.728;4.160;2023-05-10T09:59:14;4.38;;;4.05;;
57635;SDS011;43465;50.728;4.160;2023-05-10T10:01:40;4.85;;;4.38;;
57635;SDS011;43465;50.728;4.160;2023-05-10T10:04:06;3.90;;;3.58;;
57635;SDS011;43465;50.728;4.160;2023-05-10T10:06:37;5.18;;;4.07;;
57635;SDS011;43465;50.728;4.160;2023-05-10T10:09:07;5.38;;;4.55;;
57635;SDS011;43465;50.728;4.160;2023-05-10T10:11:37;5.47;;;4.97;;
57635;SDS011;43465;50.728;4.160;2023-05-10T10:14:04;5.18;;;4.68;;
57635;SDS011;43465;50.728;4.160;2023-05-10T10:16:30;5.90;;;5.20;;
57635;SDS011;43465;50.728;4.160;2023-05-10T10:18:57;7.43;;;5.45;;
57635;SDS011;43465;50.728;4.160;2023-05-10T10:21:23;7.25;;;5.65;;
57635;SDS011;43465;50.728;4.160;2023-05-10T10:23:49;6.63;;;5.95;;
57635;SDS011;43465;50.728;4.160;2023-05-10T10:26:17;6.72;;;6.05;;
57635;SDS011;43465;50.728;4.160;2023-05-10T10:31:39;9.18;;;6.72;;
57635;SDS011;43465;50.728;4.160;2023-05-10T10:34:28;9.55;;;6.70;;
57635;SDS011;43465;50.728;4.160;2023-05-10T10:36:55;9.13;;;7.55;;
57635;SDS011;43465;50.728;4.160;2023-05-10T10:39:21;10.52;;;8.65;;
57635;SDS011;43465;50.728;4.160;2023-05-10T10:41:50;8.73;;;7.13;;
57635;SDS011;43465;50.728;4.160;2023-05-10T10:44:24;8.80;;;7.07;;
57635;SDS011;43465;50.728;4.160;2023-05-10T10:54:54;7.78;;;7.07;;
57635;SDS011;43465;50.728;4.160;2023-05-10T10:57:57;7.68;;;6.97;;
57635;SDS011;43465;50.728;4.160;2023-05-10T11:00:33;10.23;;;7.65;;
57635;SDS011;43465;50.728;4.160;2023-05-10T11:03:09;9.77;;;7.57;;
57635;SDS011;43465;50.728;4.160;2023-05-10T11:10:51;8.90;;;6.68;;
57635;SDS011;43465;50.728;4.160;2023-05-10T11:13:30;8.80;;;7.68;;
57635;SDS011;43465;50.728;4.160;2023-05-10T11:15:57;7.57;;;6.50;;
57635;SDS011;43465;50.728;4.160;2023-05-10T11:18:28;9.38;;;8.23;;
57635;SDS011;43465;50.728;4.160;2023-05-10T11:20:57;9.43;;;8.00;;
57635;SDS011;43465;50.728;4.160;2023-05-10T11:23:29;9.38;;;8.05;;
57635;SDS011;43465;50.728;4.160;2023-05-10T11:25:56;9.45;;;8.38;;
57635;SDS011;43465;50.728;4.160;2023-05-10T11:28:22;8.48;;;7.68;;
57635;SDS011;43465;50.728;4.160;2023-05-10T11:30:48;8.43;;;7.53;;
57635;SDS011;43465;50.728;4.160;2023-05-10T11:33:17;7.93;;;7.15;;
57635;SDS011;43465;50.728;4.160;2023-05-10T11:35:44;7.30;;;6.70;;
57635;SDS011;43465;50.728;4.160;2023-05-10T11:38:11;8.90;;;7.97;;
57635;SDS011;43465;50.728;4.160;2023-05-10T11:40:38;8.07;;;7.30;;
57635;SDS011;43465;50.728;4.160;2023-05-10T11:43:05;9.25;;;8.35;;
57635;SDS011;43465;50.728;4.160;2023-05-10T11:45:34;8.60;;;7.72;;
57635;SDS011;43465;50.728;4.160;2023-05-10T11:48:01;9.32;;;8.07;;
57635;SDS011;43465;50.728;4.160;2023-05-10T11:50:27;12.90;;;7.03;;
57635;SDS011;43465;50.728;4.160;2023-05-10T11:52:54;9.80;;;6.57;;
57635;SDS011;43465;50.728;4.160;2023-05-10T11:55:21;8.25;;;7.45;;
57635;SDS011;43465;50.728;4.160;2023-05-10T11:57:47;8.20;;;7.50;;
57635;SDS011;43465;50.728;4.160;2023-05-10T12:00:13;7.70;;;6.90;;
57635;SDS011;43465;50.728;4.160;2023-05-10T12:02:39;6.60;;;5.95;;
57635;SDS011;43465;50.728;4.160;2023-05-10T12:05:05;7.20;;;6.50;;
57635;SDS011;43465;50.728;4.160;2023-05-10T12:07:31;7.22;;;6.53;;
57635;SDS011;43465;50.728;4.160;2023-05-10T12:12:51;6.65;;;5.90;;
57635;SDS011;43465;50.728;4.160;2023-05-10T12:15:18;6.68;;;6.00;;
57635;SDS011;43465;50.728;4.160;2023-05-10T12:17:48;7.13;;;6.43;;
57635;SDS011;43465;50.728;4.160;2023-05-10T12:20:16;9.50;;;7.50;;
57635;SDS011;43465;50.728;4.160;2023-05-10T12:22:44;7.82;;;7.13;;
57635;SDS011;43465;50.728;4.160;2023-05-10T12:25:11;7.70;;;6.90;;
57635;SDS011;43465;50.728;4.160;2023-05-10T12:27:36;8.25;;;7.38;;
57635;SDS011;43465;50.728;4.160;2023-05-10T12:30:02;7.70;;;7.00;;
57635;SDS011;43465;50.728;4.160;2023-05-10T12:32:41;8.45;;;7.55;;
57635;SDS011;43465;50.728;4.160;2023-05-10T12:35:07;7.65;;;6.95;;
57635;SDS011;43465;50.728;4.160;2023-05-10T12:37:33;7.80;;;7.00;;
57635;SDS011;43465;50.728;4.160;2023-05-10T12:40:04;8.60;;;6.90;;
57635;SDS011;43465;50.728;4.160;2023-05-10T12:42:31;8.48;;;7.55;;
57635;SDS011;43465;50.728;4.160;2023-05-10T12:44:57;10.50;;;7.53;;
57635;SDS011;43465;50.728;4.160;2023-05-10T12:47:23;8.15;;;7.03;;
57635;SDS011;43465;50.728;4.160;2023-05-10T12:49:48;8.18;;;7.40;;
57635;SDS011;43465;50.728;4.160;2023-05-10T12:52:14;8.90;;;8.02;;
57635;SDS011;43465;50.728;4.160;2023-05-10T12:54:40;10.63;;;7.93;;
57635;SDS011;43465;50.728;4.160;2023-05-10T12:57:05;8.32;;;7.47;;
57635;SDS011;43465;50.728;4.160;2023-05-10T12:59:31;8.18;;;7.18;;
57635;SDS011;43465;50.728;4.160;2023-05-10T13:01:57;8.98;;;7.25;;
57635;SDS011;43465;50.728;4.160;2023-05-10T13:04:23;10.73;;;7.38;;
57635;SDS011;43465;50.728;4.160;2023-05-10T13:06:48;9.82;;;7.43;;
57635;SDS011;43465;50.728;4.160;2023-05-10T13:09:14;9.40;;;7.82;;
57635;SDS011;43465;50.728;4.160;2023-05-10T13:11:40;9.27;;;7.53;;
57635;SDS011;43465;50.728;4.160;2023-05-10T13:14:06;8.65;;;6.63;;
57635;SDS011;43465;50.728;4.160;2023-05-10T13:16:31;6.50;;;5.88;;
57635;SDS011;43465;50.728;4.160;2023-05-10T13:18:57;9.40;;;7.07;;
57635;SDS011;43465;50.728;4.160;2023-05-10T13:21:23;7.47;;;6.72;;
57635;SDS011;43465;50.728;4.160;2023-05-10T13:23:50;7.90;;;6.97;;
57635;SDS011;43465;50.728;4.160;2023-05-10T13:26:16;7.72;;;7.00;;
57635;SDS011;43465;50.728;4.160;2023-05-10T13:28:41;10.27;;;7.63;;
57635;SDS011;43465;50.728;4.160;2023-05-10T13:31:07;8.35;;;7.45;;
57635;SDS011;43465;50.728;4.160;2023-05-10T13:33:33;9.43;;;7.57;;
57635;SDS011;43465;50.728;4.160;2023-05-10T13:35:58;9.70;;;7.47;;
57635;SDS011;43465;50.728;4.160;2023-05-10T13:38:24;8.30;;;7.50;;
57635;SDS011;43465;50.728;4.160;2023-05-10T13:40:49;8.57;;;7.35;;
57635;SDS011;43465;50.728;4.160;2023-05-10T13:43:17;8.77;;;7.88;;
57635;SDS011;43465;50.728;4.160;2023-05-10T13:45:43;9.05;;;7.93;;
57635;SDS011;43465;50.728;4.160;2023-05-10T13:48:09;9.15;;;8.13;;
57635;SDS011;43465;50.728;4.160;2023-05-10T13:50:35;9.52;;;8.50;;
57635;SDS011;43465;50.728;4.160;2023-05-10T13:53:01;10.75;;;8.98;;
57635;SDS011;43465;50.728;4.160;2023-05-10T13:55:26;10.25;;;9.18;;
57635;SDS011;43465;50.728;4.160;2023-05-10T13:57:52;12.05;;;9.48;;
57635;SDS011;43465;50.728;4.160;2023-05-10T14:00:18;11.63;;;9.88;;
57635;SDS011;43465;50.728;4.160;2023-05-10T14:02:43;12.68;;;9.90;;
57635;SDS011;43465;50.728;4.160;2023-05-10T14:05:09;10.35;;;8.95;;
57635;SDS011;43465;50.728;4.160;2023-05-10T14:07:35;12.75;;;11.07;;
57635;SDS011;43465;50.728;4.160;2023-05-10T14:10:00;10.73;;;9.52;;
57635;SDS011;43465;50.728;4.160;2023-05-10T14:12:26;12.40;;;11.10;;
57635;SDS011;43465;50.728;4.160;2023-05-10T14:14:52;13.20;;;11.80;;
57635;SDS011;43465;50.728;4.160;2023-05-10T14:17:18;15.88;;;12.18;;
57635;SDS011;43465;50.728;4.160;2023-05-10T14:19:44;13.38;;;11.45;;
57635;SDS011;43465;50.728;4.160;2023-05-10T14:22:10;14.93;;;10.65;;
57635;SDS011;43465;50.728;4.160;2023-05-10T14:24:35;13.45;;;12.05;;
57635;SDS011;43465;50.728;4.160;2023-05-10T14:27:01;13.43;;;12.02;;
57635;SDS011;43465;50.728;4.160;2023-05-10T14:29:26;14.70;;;12.75;;
57635;SDS011;43465;50.728;4.160;2023-05-10T14:31:52;15.80;;;14.20;;
57635;SDS011;43465;50.728;4.160;2023-05-10T14:34:18;15.57;;;13.70;;
57635;SDS011;43465;50.728;4.160;2023-05-10T14:36:43;15.00;;;13.50;;
57635;SDS011;43465;50.728;4.160;2023-05-10T14:39:09;16.77;;;13.52;;
57635;SDS011;43465;50.728;4.160;2023-05-10T14:41:37;17.15;;;14.15;;
57635;SDS011;43465;50.728;4.160;2023-05-10T14:44:04;16.85;;;14.88;;
57635;SDS011;43465;50.728;4.160;2023-05-10T14:46:29;15.35;;;13.75;;
57635;SDS011;43465;50.728;4.160;2023-05-10T14:48:55;15.15;;;12.77;;
57635;SDS011;43465;50.728;4.160;2023-05-10T14:51:21;13.80;;;10.77;;
57635;SDS011;43465;50.728;4.160;2023-05-10T14:53:47;13.25;;;11.00;;
57635;SDS011;43465;50.728;4.160;2023-05-10T14:56:14;14.63;;;11.88;;
57635;SDS011;43465;50.728;4.160;2023-05-10T14:58:40;14.98;;;11.93;;
57635;SDS011;43465;50.728;4.160;2023-05-10T15:01:06;14.75;;;12.40;;
57635;SDS011;43465;50.728;4.160;2023-05-10T15:03:31;15.20;;;12.95;;
57635;SDS011;43465;50.728;4.160;2023-05-10T15:05:57;13.77;;;11.63;;
57635;SDS011;43465;50.728;4.160;2023-05-10T15:08:25;14.63;;;12.95;;
57635;SDS011;43465;50.728;4.160;2023-05-10T15:10:51;13.02;;;11.60;;
57635;SDS011;43465;50.728;4.160;2023-05-10T15:13:17;12.45;;;11.07;;